KSYR/SYR METAR and TAF weather

Enter ICAO airport designator
Station Type Date Time Source
KSYR METAR 2021/07/26 16:54 UTC NOAA

KSYR 261654Z 28007KT 240V320 10SM FEW045 FEW250 29/16 A2994 RMK AO2 SLP130 T02890156


Station Type Date Time Source
KSYR Decoded METAR 2021/07/26 16:54 UTC NOAA

SYRACUSE HANCOCK INTERNATIONAL AIRPORT , NY, United States (KSYR) 43-07N 76-06W 127M
Jul 26, 2021 - 12:54 PM EDT / 2021.07.26 1654 UTC
Wind: from the W (280 degrees) at 8 MPH (7 KT) (direction variable):0
Visibility: 10 mile(s):0
Sky conditions: mostly clear
Temperature: 84.0 F (28.9 C)
Dew Point: 60.1 F (15.6 C)
Relative Humidity: 44%
Pressure (altimeter): 29.94 in. Hg (1013 hPa)
ob: KSYR 261654Z 28007KT 240V320 10SM FEW045 FEW250 29/16 A2994 RMK AO2 SLP130 T02890156
cycle: 17

Station Type Date Time Source
KSYR TAF 2021/07/26 12:39 UTC NOAA

TAF KSYR 261137Z 2612/2712 25004KT P6SM FEW250
FM261400 28005KT P6SM FEW250

Example: see airport list